Greeneville, TN

9:42 PM EDT on September 21, 2014 (GMT -0400)
Old Jonesboro Rd | Change Station
CLOSE
Current Station
Personal Weather Station
Location: Chuckey, TN
Elevation: 1365 ft
Nearby Weather Stations

Elev 1365 ft 36.16 °N, 82.69 °W | Updated 38 seconds ago

Mostly Cloudy
Mostly Cloudy
69.3 °F
Feels Like 69.3 °F
N
3.5
Wind Variable Wind from WSW
Gusts 3.5 mph

Today
High -- | Low -- °F
--% Chance of Precip.
Yesterday
High -- | Low -- °F
Precip. -- in
7:18 AM 7:29 PM
Waning Crescent, 4% visible
Pressure 29.94 in
Visibility 2.0 miles
Clouds Few 1500 ft
Mostly Cloudy 4000 ft
Overcast 8000 ft
Dew Point 63 °F
Humidity 80%
Rainfall 0.00 in
Snow Depth Not available.
UV 0 out of 12
Pollen 5.90 out of 12
Air Quality Not available.
Flu Activity Not available.
SPECI KTRI 220122Z 24015G20KT 2SM -RA BR FEW015 BKN040 OVC080 21/19 A2994 RMK AO2 SFC VIS 3 RAB03 P0017 T02110189

More Conditions Fewer Conditions

Pressure 29.94 in
Visibility 2.0 miles
Clouds Few 1500 ft
Mostly Cloudy 4000 ft
Overcast 8000 ft
Dew Point 63 °F
Humidity 80%
Rainfall 0.00 in
Snow Depth Not available.
UV 0 out of 12
Pollen 5.90 out of 12
Air Quality Not available.
Flu Activity Not available.
SPECI KTRI 220122Z 24015G20KT 2SM -RA BR FEW015 BKN040 OVC080 21/19 A2994 RMK AO2 SFC VIS 3 RAB03 P0017 T02110189

More Conditions Fewer Conditions

10-Day Weather Forecast

Almanac

Astronomy

Sep. 21, 2014 Rise Set
Actual Time 7:18 AM EDT 7:29 PM EDT
Civil Twilight 6:53 AM EDT 7:55 PM EDT
Nautical Twilight 6:22 AM EDT 8:25 PM EDT
Astronomical Twilight 5:52 AM EDT 8:55 PM EDT
Moon 4:54 AM EDT (9/21) 6:02 PM EDT (9/21)
Length of Visible Light 13h 02m
Length of Day
12h 11m
Tomorrow will be 2m 17s shorter.
Waning Crescent, 4% of the Moon is Illuminated
Today
Waning Crescent
Sep 24
New
Oct 1
First Quarter
Oct 8
Full
Oct 15
Last Quarter

Today's Extremes

State Highs State Lows

Community

WunderPhotos

Upload Photos

1,755,347 photos uploaded!

WunderBlogs® & News

Nearby

Snow Depth

Station Depth Elevation
No new snow has been reported.

Earthquake Activity

City Distance Mag. Time & Date
Sweetwater, Tennessee 93 miles 2.5 3:54 PM EDT
2014-09-20
Minimum magnitude displayed is 2.5.

Coastal Water Temperatures

Place Temperature
No Stations Reporting

Nearby Weather Stations